Report METAR

 

LIBV - Gioia Del Colle, Italy
Distanza dalla stazione: SSE 15km
Dati ricevuti: 17/12/2017 19:55
Parz. nuvoloso
Parz. nuvoloso
 Vento da ONO
Vento: ONO 22 km/h
Temperatura: 3°C
Temperatura Vento: -2°C
P.to Rugiada: 3°C
Umidità: 100%
Barometro: 1014 hPa
Nuvole: Parz. nuvoloso
Visibilità: 9 km
Dettagli nuvole: Poche nubi 549 m
Parz. nuvoloso 1219 m
2017/12/17 18:55 LIBV 171855Z 30012KT 9000 FEW018 SCT040 03/03 Q1014 RMK BKN VIS MIN 9000 WIND THR32 /////KT WIND THR14 33013KT BLU
LIBD - Bari/Palese Macc, Italy
Distanza dalla stazione: NNO 26km
Dati ricevuti: 17/12/2017 19:50
Pioggia, Parz. nuvoloso
Pioggia, Parz. nuvoloso
 Vento da O
Vento: O 24 km/h
Temperatura: 6°C
Temperatura Vento: 2°C
P.to Rugiada: 5°C
Umidità: 93%
Barometro: 1016 hPa
Riassunto: Pioggia
Nuvole: Parz. nuvoloso
Visibilità: 8 km
Dettagli nuvole: Parz. nuvoloso 762 m
Parz. nuvoloso 1372 m
2017/12/17 18:50 LIBD 171850Z 28013KT 8000 RA SCT025 SCT045 06/05 Q1016
LIBH - Marina Di Ginosa, Italy
Distanza dalla stazione: S 53km
Dati ricevuti: 17/12/2017 19:55
Sereno
Sereno
 Vento da NO
Vento: NO 15 km/h
Temperatura: 9°C
Temperatura Vento: 7°C
P.to Rugiada: 5°C
Umidità: 76%
Barometro: 1015 hPa
Riassunto: Sereno
Visibilità: superiore a 10 km
2017/12/17 18:55 LIBH 171855Z 31008KT CAVOK 09/05 Q1015 RMK SKC QUK / QUL / VIS MAR 20 KM VIS MIN 9999
 
LIBG - Grottaglie(Civ/A, Italy
Distanza dalla stazione: SE 61km
Dati ricevuti: 17/12/2017 19:50
Sereno
Sereno
 Vento da O
Vento: O 11 km/h
Temperatura: 7°C
Temperatura Vento: 5°C
P.to Rugiada: 4°C
Umidità: 81%
Barometro: 1014 hPa
Riassunto: Sereno
Visibilità: superiore a 10 km
2017/12/17 18:50 LIBG 171850Z 26006KT CAVOK 07/04 Q1014
LIBR - Brindisi/Casale, Italy
Distanza dalla stazione: ESE 96km
Dati ricevuti: 17/12/2017 19:45
Sereno
Sereno
 Vento da ONO
Vento: ONO 39 km/h
Temperatura: 9°C
Temperatura Vento: 4°C
P.to Rugiada: 7°C
Umidità: 87%
Barometro: 1014 hPa
Riassunto: Sereno
Visibilità: superiore a 10 km
2017/12/17 18:45 LIBR 171845Z 29021KT CAVOK 09/07 Q1014 NOSIG
LIBA - Amendola (it-Afb, Italy
Distanza dalla stazione: NO 118km
Dati ricevuti: 15/12/2017 18:55
DATI Obsoleti
Parz. nuvoloso
Parz. nuvoloso
 Vento da S
Vento: S 20 km/h
Temperatura: 13°C
P.to Rugiada: 8°C
Umidità: 72%
Barometro: 1000 hPa
Nuvole: Parz. nuvoloso
Visibilità: 10 km
Dettagli nuvole: Parz. nuvoloso 1067 m
2017/12/15 17:55 LIBA 151755Z 18011KT 9999 SCT035 13/08 Q1000 RMK BKN SCT070 VIS MIN 9999 WIND THR11 18013KT WIND THR29 /////KT BLU
 
LIBF - Foggia/Gino Lisa, Italy
Distanza dalla stazione: ONO 126km
Dati ricevuti: 17/12/2017 15:50
DATI Obsoleti
Parz. nuvoloso
Parz. nuvoloso
 Vento da O
Vento: O 31 km/h
Temperatura: 7°C
Temperatura Vento: 3°C
P.to Rugiada: 3°C
Umidità: 76%
Barometro: 1014 hPa
Nuvole: Parz. nuvoloso
Visibilità: 10 km
Dettagli nuvole: Parz. nuvoloso 1067 m
2017/12/17 14:50 LIBF 171450Z 28017KT 9999 SCT035 07/03 Q1014
LIBN - Lecce (it-Afb), Italy
Distanza dalla stazione: SE 132km
Dati ricevuti: 17/12/2017 19:55
Sereno
Sereno
 Vento da O
Vento: O 13 km/h
Temperatura: 6°C
Temperatura Vento: 3°C
P.to Rugiada: 3°C
Umidità: 81%
Barometro: 1014 hPa
Riassunto: Sereno
Visibilità: superiore a 10 km
2017/12/17 18:55 LIBN 171855Z 27007KT CAVOK 06/03 Q1014 RMK FEW FEW060 VIS MIN 9999 WIND THR14 27006KT WIND THR32 27007KT BLU